SNCO2: N. Canadian River at Shawnee, OK

                                SHEF ID:       SNCO2     North Canadian River at Shawnee,
STATION TYPE:

STAGE RIV-FLOW BAT-LOAD
ft cfs volt
Ccp-Rev Ccp-Rev Ccp-Rev
(America/Chicago)
05/03 00:00 9.23 128 11.79
05/03 01:00 9.22 126 11.78
05/03 02:00 9.21 125 11.76
05/03 03:00 9.20 124 11.74
05/03 04:00 9.20 124 11.71
05/03 05:00 9.19 123 11.68
05/03 06:00 9.19 123 11.68
05/03 07:00 9.17 120 11.66
05/03 08:00 9.16 119 11.91
05/03 09:00 9.16 119 12.36
05/03 10:00 9.17 120 12.42
05/03 11:00 9.17 120 12.27
05/03 12:00 9.18 122 12.16
05/03 13:00 9.17 120 12.07
05/03 14:00 9.18 122 12.05
05/03 15:00 9.18 122 12.04
05/03 16:00 9.19 123 12.02
05/03 17:00 9.18 122 11.99
05/03 18:00 9.16 119 11.98
05/03 19:00 9.19 123 11.96
05/03 20:00 9.20 124 11.81
05/03 21:00 9.20 124 11.79
05/03 22:00 9.20 124 11.79
05/03 23:00 ---- ---- ----
Data processed at Mon 04May2026 04:01 GMT

NOTICE: If you are parsing this page

Please convert to using our Data API. Starting early 2026 we will be migrating to: https://water.usace.army.mil with modern pages rendered in JavaScript. When this migration completes you will no longer be able to scrape this page! CWMSDataAPI (CDA)

Timeseries IDs (TSIDs)

TSIDs used from left to right in the data table
SHAW.Stage.Inst.1Hour.0.Ccp-Rev
SHAW.Flow.Inst.1Hour.0.Ccp-Rev
SHAW.Volt-Battery Load.Inst.1Hour.0.Ccp-Rev

                            

All information presented herein is the property of the government of the United States of America and may be revised or deleted at any time without prior notice. Dissemination of this information without the expressed written consent of the Public Affairs Office, Tulsa District U.S. Army Corps of Engineers is strictly prohibited. These data are gathered electronically and, as presented, have NOT undergone any form of quality control. These data are NOT guaranteed to be valid or correct.